Time;durP1;ratioP1;P1;durP2;ratioP2;P2;SDS_P1;SDS_P2;PMS_P1;PMS_P2;Temp;Humidity;BMP_temperature;BMP_pressure;BME280_temperature;BME280_humidity;BME280_pressure;Samples;Min_cycle;Max_cycle;Signal;HPM_P1;HPM_P2
2021/08/20 00:00:23;;;;;;;14.88;9.53;;;;;;;14.60;74.56;99259.17;130324;1090;114328;-63
2021/08/20 00:02:52;;;;;;;14.45;9.38;;;;;;;14.52;74.47;99251.59;130417;1088;22654;-63
2021/08/20 00:05:21;;;;;;;16.50;10.68;;;;;;;14.45;74.71;99245.63;130307;1088;114681;-63
2021/08/20 00:07:50;;;;;;;18.93;10.98;;;;;;;14.36;74.86;99248.16;130434;1090;23816;-63
2021/08/20 00:10:19;;;;;;;15.55;10.05;;;;;;;14.28;75.34;99248.80;130431;1089;22598;-63
2021/08/20 00:12:51;;;;;;;16.95;10.35;;;;;;;14.23;75.46;99243.36;130277;1090;113813;-63
2021/08/20 00:15:20;;;;;;;15.43;10.23;;;;;;;14.19;75.61;99252.44;130424;1089;22775;-62
2021/08/20 00:17:51;;;;;;;14.83;10.43;;;;;;;14.17;75.93;99247.23;130334;1090;114938;-62
2021/08/20 00:20:39;;;;;;;14.93;9.45;;;;;;;14.16;75.85;99254.64;130391;1089;22561;-62
2021/08/20 00:23:10;;;;;;;16.10;10.78;;;;;;;14.16;75.85;99253.82;130356;1089;114417;-62
2021/08/20 00:25:41;;;;;;;14.55;9.68;;;;;;;14.14;75.72;99253.28;130429;1090;22629;-62
2021/08/20 00:28:10;;;;;;;12.88;9.43;;;;;;;14.11;75.72;99254.70;130383;1089;22559;-62
2021/08/20 00:30:41;;;;;;;18.00;9.78;;;;;;;14.09;75.80;99262.39;130325;1088;114896;-62
2021/08/20 00:33:10;;;;;;;14.03;9.43;;;;;;;14.06;75.67;99256.66;130446;1089;22700;-63
2021/08/20 00:35:59;;;;;;;18.18;9.80;;;;;;;14.03;75.90;99258.05;130329;1090;114082;-62
2021/08/20 00:38:29;;;;;;;13.60;9.60;;;;;;;14.02;76.03;99258.33;130418;1088;22585;-62
2021/08/20 00:40:58;;;;;;;14.10;9.30;;;;;;;13.99;76.11;99261.67;126673;1089;114251;-62
2021/08/20 00:43:28;;;;;;;15.70;9.33;;;;;;;13.98;76.09;99263.59;125805;1090;22799;-62
2021/08/20 00:46:00;;;;;;;16.50;9.23;;;;;;;13.98;76.32;99271.80;130463;1090;22639;-63
2021/08/20 00:48:29;;;;;;;16.60;9.78;;;;;;;13.99;76.31;99272.63;130296;1090;113764;-63
2021/08/20 00:51:04;;;;;;;17.85;10.05;;;;;;;13.99;76.08;99278.10;130430;1089;22648;-64
2021/08/20 00:53:37;;;;;;;14.33;10.50;;;;;;;13.99;76.12;99273.44;130244;1089;113956;-64
2021/08/20 00:56:06;;;;;;;16.58;9.03;;;;;;;13.98;76.01;99273.73;130453;1089;22578;-64
2021/08/20 00:58:35;;;;;;;13.20;9.63;;;;;;;13.97;75.73;99278.39;130329;1090;113866;-64
2021/08/20 01:01:05;;;;;;;15.98;9.28;;;;;;;13.96;76.05;99275.93;130432;1090;22595;-64
2021/08/20 01:03:36;;;;;;;12.83;9.08;;;;;;;13.94;76.32;99280.87;130370;1090;22590;-64
2021/08/20 01:06:06;;;;;;;11.65;9.10;;;;;;;13.94;76.29;99286.34;130317;1089;113410;-64
2021/08/20 01:08:36;;;;;;;12.90;8.65;;;;;;;13.92;75.87;99283.89;130360;1090;22565;-64
2021/08/20 01:11:13;;;;;;;15.58;8.53;;;;;;;13.93;75.89;99290.19;130294;1088;114088;-64
2021/08/20 01:13:46;;;;;;;14.35;9.53;;;;;;;13.92;76.10;99286.63;130400;1090;22530;-63
2021/08/20 01:16:17;;;;;;;11.85;9.25;;;;;;;13.92;75.90;99288.55;130127;1090;22657;-64
2021/08/20 01:18:46;;;;;;;17.13;9.43;;;;;;;13.90;75.47;99288.02;130287;1090;114438;-64
2021/08/20 01:21:18;;;;;;;15.58;9.25;;;;;;;13.88;75.98;99293.77;130358;1089;22581;-64
2021/08/20 01:23:59;;;;;;;13.10;9.10;;;;;;;13.85;76.08;99296.28;130337;1088;114288;-64
2021/08/20 01:26:50;;;;;;;10.63;8.28;;;;;;;13.83;75.81;99291.09;130457;1089;22557;-64
2021/08/20 01:29:23;;;;;;;12.13;8.03;;;;;;;13.82;76.41;99296.85;130035;1090;114047;-64
2021/08/20 01:32:12;;;;;;;14.28;8.10;;;;;;;13.77;75.92;99306.73;130365;1088;22576;-64
2021/08/20 01:34:45;;;;;;;13.45;8.85;;;;;;;13.73;76.00;99319.34;130305;1088;113973;-64
2021/08/20 01:37:29;;;;;;;10.48;7.95;;;;;;;13.69;76.26;99312.81;130433;1090;22528;-64
2021/08/20 01:39:59;;;;;;;13.20;8.50;;;;;;;13.66;76.46;99315.30;130380;1090;24315;-64
2021/08/20 01:42:28;;;;;;;14.10;8.85;;;;;;;13.62;76.56;99315.03;130025;1090;113788;-64
2021/08/20 01:44:57;;;;;;;10.83;8.48;;;;;;;13.58;76.77;99310.40;130144;1089;23626;-64
2021/08/20 01:47:28;;;;;;;14.13;8.43;;;;;;;13.52;76.53;99312.37;130327;1090;113673;-64
2021/08/20 01:49:57;;;;;;;12.78;8.83;;;;;;;13.49;76.49;99318.40;130444;1089;22515;-64
2021/08/20 01:52:40;;;;;;;14.73;7.38;;;;;;;13.44;76.74;99316.50;130252;1089;114020;-64
2021/08/20 01:55:10;;;;;;;12.75;7.90;;;;;;;13.41;76.98;99319.00;130384;1090;22572;-64
2021/08/20 01:57:40;;;;;;;9.48;7.68;;;;;;;13.35;77.07;99304.52;130455;1090;22588;-63
2021/08/20 02:00:10;;;;;;;13.40;8.73;;;;;;;13.41;77.69;99316.27;130254;1089;113474;-63
2021/08/20 02:02:42;;;;;;;11.38;7.65;;;;;;;13.28;77.89;99294.96;130410;1090;22642;-64
2021/08/20 02:05:18;;;;;;;13.57;8.07;;;;;;;13.39;77.52;99315.72;130355;1088;113779;-65
2021/08/20 02:07:48;;;;;;;11.40;9.13;;;;;;;13.39;77.74;99313.81;130435;1089;22534;-65
2021/08/20 02:10:19;;;;;;;13.35;9.10;;;;;;;13.42;77.68;99320.61;130313;1088;23347;-65
2021/08/20 02:12:51;;;;;;;12.30;7.78;;;;;;;13.43;77.76;99319.52;130280;1090;113803;-64
2021/08/20 02:15:25;;;;;;;15.83;8.45;;;;;;;13.41;77.71;99321.73;130383;1089;22573;-64
2021/08/20 02:17:54;;;;;;;13.83;8.68;;;;;;;13.42;77.95;99318.69;130237;1089;114001;-64
2021/08/20 02:20:27;;;;;;;13.23;9.23;;;;;;;13.45;77.83;99320.05;130455;1090;22673;-64
2021/08/20 02:22:58;;;;;;;12.40;8.63;;;;;;;13.49;77.78;99326.61;130267;1089;114195;-64
2021/08/20 02:25:28;;;;;;;11.93;8.05;;;;;;;13.50;77.40;99320.03;130403;1089;22644;-64
2021/08/20 02:27:57;;;;;;;10.55;8.50;;;;;;;13.49;77.29;99321.14;130317;1089;22523;-63
2021/08/20 02:30:26;;;;;;;12.25;8.73;;;;;;;13.46;77.53;99324.43;130318;1089;113959;-63
2021/08/20 02:32:56;;;;;;;13.73;8.33;;;;;;;13.42;77.42;99317.88;130358;1090;22574;-64
2021/08/20 02:35:26;;;;;;;14.15;8.80;;;;;;;13.40;77.48;99317.36;130286;1090;114486;-64
2021/08/20 02:37:55;;;;;;;14.83;8.88;;;;;;;13.38;77.74;99316.82;130290;1089;23462;-63
2021/08/20 02:40:24;;;;;;;17.05;8.55;;;;;;;13.37;77.78;99317.92;127573;1090;22775;-63
2021/08/20 02:42:53;;;;;;;11.85;8.58;;;;;;;13.37;78.01;99323.39;130230;1089;114167;-63
2021/08/20 02:45:22;;;;;;;17.53;9.43;;;;;;;13.38;78.14;99328.59;130400;1090;22627;-63
2021/08/20 02:47:59;;;;;;;13.58;8.70;;;;;;;13.40;77.63;99326.39;130349;1090;113747;-63
2021/08/20 02:50:29;;;;;;;11.45;8.03;;;;;;;13.41;77.64;99340.89;130376;1090;22576;-63
2021/08/20 02:52:58;;;;;;;10.18;7.78;;;;;;;13.41;77.56;99335.42;130057;1090;114219;-64
2021/08/20 02:55:30;;;;;;;16.03;8.13;;;;;;;13.41;77.39;99332.69;130459;1088;23494;-64
2021/08/20 02:57:59;;;;;;;14.23;7.75;;;;;;;13.42;77.29;99328.82;130445;1089;23320;-64
2021/08/20 03:00:31;;;;;;;12.10;8.55;;;;;;;13.37;77.84;99328.86;130311;1090;113950;-64
2021/08/20 03:03:03;;;;;;;15.88;11.48;;;;;;;13.40;77.43;99341.99;130421;1090;23149;-63
2021/08/20 03:05:33;;;;;;;21.43;13.65;;;;;;;13.42;77.77;99337.84;130248;1089;114152;-63
2021/08/20 03:08:05;;;;;;;26.38;19.28;;;;;;;13.47;77.88;99341.67;130441;1088;22545;-63
2021/08/20 03:10:35;;;;;;;66.98;36.13;;;;;;;13.52;77.91;99338.92;130299;1089;114057;-63
2021/08/20 03:13:04;;;;;;;65.77;44.23;;;;;;;13.58;77.65;99343.25;130412;1089;22566;-64
2021/08/20 03:15:33;;;;;;;74.93;48.20;;;;;;;13.64;77.19;99347.61;130427;1090;23732;-64
2021/08/20 03:18:02;;;;;;;64.45;44.08;;;;;;;13.71;76.66;99348.09;130360;1090;114174;-64
2021/08/20 03:20:35;;;;;;;68.25;44.85;;;;;;;13.76;76.49;99350.82;130421;1089;22568;-63
2021/08/20 03:23:10;;;;;;;70.70;40.73;;;;;;;13.81;76.33;99345.32;130182;1089;114345;-63
2021/08/20 03:25:38;;;;;;;52.80;34.55;;;;;;;13.86;76.28;99345.27;130466;1088;22519;-63
2021/08/20 03:28:10;;;;;;;44.93;27.58;;;;;;;13.93;75.95;99345.78;130435;1089;22593;-63
2021/08/20 03:30:51;;;;;;;40.98;26.70;;;;;;;14.00;75.37;99346.27;130366;1088;113313;-63
2021/08/20 03:33:20;;;;;;;60.45;38.35;;;;;;;14.08;75.60;99342.94;130459;1089;22546;-64
2021/08/20 03:36:29;;;;;;;53.90;36.10;;;;;;;14.16;75.20;99347.20;109800;1217;546617;-62
2021/08/20 03:39:04;;;;;;;53.10;33.60;;;;;;;14.22;75.05;99348.20;111120;1215;25080;-58
2021/08/20 03:41:35;;;;;;;50.70;31.20;;;;;;;14.30;74.82;99349.23;111068;1205;137184;-62
2021/08/20 03:44:11;;;;;;;47.70;30.10;;;;;;;14.38;74.40;99349.58;111400;1206;23630;-62
2021/08/20 03:46:46;;;;;;;48.90;29.60;;;;;;;14.47;74.30;99353.84;111287;1202;138416;-62
2021/08/20 03:49:14;;;;;;;38.20;26.10;;;;;;;14.55;74.24;99357.13;111386;1208;22471;-62
2021/08/20 03:52:03;;;;;;;39.50;27.50;;;;;;;14.62;73.98;99358.58;115495;1207;22308;-63
2021/08/20 03:54:34;;;;;;;40.80;24.80;;;;;;;14.70;73.63;99354.29;115168;1204;137504;-63
2021/08/20 03:57:03;;;;;;;34.90;22.50;;;;;;;14.76;73.52;99355.43;115277;1209;22426;-63
2021/08/20 03:59:33;;;;;;;27.60;18.20;;;;;;;14.85;73.12;99351.02;115366;1204;137528;-63
2021/08/20 04:02:10;;;;;;;23.50;14.80;;;;;;;14.93;72.82;99351.41;115451;1204;22357;-63
2021/08/20 04:04:41;;;;;;;21.70;12.80;;;;;;;15.01;72.59;99353.64;115307;1204;139272;-63
2021/08/20 04:07:38;;;;;;;17.30;10.20;;;;;;;15.10;72.29;99352.29;115466;1204;22279;-63
2021/08/20 04:10:19;;;;;;;15.20;8.80;;;;;;;15.17;72.02;99354.48;115451;1207;23226;-63
2021/08/20 04:13:01;;;;;;;14.40;8.90;;;;;;;15.26;71.89;99354.84;115282;1201;137407;-62
2021/08/20 04:16:04;;;;;;;16.30;7.00;;;;;;;15.35;71.70;99357.08;115455;1207;22336;-63
2021/08/20 04:18:32;;;;;;;14.30;7.70;;;;;;;15.42;71.50;99354.30;115352;1205;137323;-64
2021/08/20 04:21:01;;;;;;;13.50;6.30;;;;;;;15.51;71.16;99357.05;115452;1207;22337;-63
2021/08/20 04:23:31;;;;;;;8.50;6.50;;;;;;;15.59;70.58;99352.96;115348;1204;137562;-63
2021/08/20 04:26:02;;;;;;;11.70;6.70;;;;;;;15.67;70.44;99353.30;115509;1207;22298;-60
2021/08/20 04:28:51;;;;;;;9.50;7.50;;;;;;;15.78;70.13;99356.16;115353;1201;139589;-62
2021/08/20 04:31:41;;;;;;;11.00;7.40;;;;;;;15.91;69.82;99359.89;115494;1210;23483;-61
2021/08/20 04:34:20;;;;;;;12.40;7.70;;;;;;;16.03;69.35;99361.73;115572;1204;22248;-60
2021/08/20 04:37:11;;;;;;;11.70;8.00;;;;;;;16.17;69.09;99361.58;115330;1204;138531;-61
2021/08/20 04:39:59;;;;;;;13.40;8.40;;;;;;;16.32;68.64;99359.48;115553;1204;22277;-60
2021/08/20 04:42:44;;;;;;;14.40;8.30;;;;;;;16.48;68.14;99354.92;115633;1199;138511;-62
2021/08/20 04:45:35;;;;;;;13.10;8.90;;;;;;;16.68;67.90;99354.59;115465;1207;22367;-61
2021/08/20 04:48:29;;;;;;;13.50;8.50;;;;;;;16.89;67.41;99356.15;115351;1201;138720;-61
2021/08/20 04:51:12;;;;;;;14.20;7.90;;;;;;;17.09;67.20;99351.31;115561;1204;23411;-61
2021/08/20 04:53:45;;;;;;;10.20;6.60;;;;;;;17.33;66.81;99353.46;115598;1202;137511;-61
2021/08/20 04:56:21;;;;;;;12.80;6.90;;;;;;;17.61;65.77;99355.42;115731;1210;23085;-61
2021/08/20 04:58:52;;;;;;;8.00;7.00;;;;;;;17.89;65.03;99352.07;115539;1202;138556;-61
2021/08/20 05:01:21;;;;;;;8.40;6.30;;;;;;;18.18;64.22;99351.17;115552;1204;22226;-61
2021/08/20 05:03:50;;;;;;;8.10;6.10;;;;;;;18.46;63.30;99350.70;115566;1208;23025;-61
2021/08/20 05:06:18;;;;;;;9.30;6.00;;;;;;;18.71;62.17;99350.77;115501;1199;138065;-61
2021/08/20 05:09:08;;;;;;;6.40;4.90;;;;;;;18.95;61.38;99355.39;115709;1205;22555;-61
2021/08/20 05:11:38;;;;;;;8.60;6.00;;;;;;;19.17;60.91;99353.95;115540;1201;137276;-61
2021/08/20 05:14:06;;;;;;;8.30;5.80;;;;;;;19.40;60.30;99352.90;115725;1204;22331;-62
2021/08/20 05:16:54;;;;;;;7.00;4.60;;;;;;;19.63;60.09;99350.73;115579;1200;138699;-61
2021/08/20 05:19:22;;;;;;;6.60;5.00;;;;;;;19.83;59.45;99352.87;115702;1205;22386;-62
2021/08/20 05:21:50;;;;;;;7.50;4.40;;;;;;;20.03;59.03;99348.75;115709;1205;22227;-62
2021/08/20 05:24:35;;;;;;;5.90;4.50;;;;;;;20.20;58.31;99345.50;115402;1202;136650;-62
2021/08/20 05:27:04;;;;;;;6.20;4.80;;;;;;;20.27;57.98;99348.17;115524;1210;23415;-61
2021/08/20 05:29:32;;;;;;;5.10;4.50;;;;;;;20.31;58.00;99347.36;115572;1203;137142;-62
2021/08/20 05:32:02;;;;;;;8.20;4.80;;;;;;;20.41;57.78;99342.04;115678;1205;22344;-61
2021/08/20 05:34:30;;;;;;;6.30;4.70;;;;;;;20.53;57.49;99342.09;115711;1205;23094;-62
2021/08/20 05:36:58;;;;;;;7.80;4.70;;;;;;;20.61;56.98;99341.27;115602;1200;136722;-61
2021/08/20 05:39:46;;;;;;;7.00;4.40;;;;;;;20.63;56.84;99340.50;115600;1209;22339;-61
2021/08/20 05:42:14;;;;;;;7.20;4.50;;;;;;;20.66;56.95;99344.71;115554;1202;138128;-62
2021/08/20 05:44:42;;;;;;;6.00;4.40;;;;;;;20.70;56.83;99344.20;115708;1204;22330;-63
2021/08/20 05:47:45;;;;;;;6.70;4.20;;;;;;;20.72;56.62;99348.02;115322;1201;136964;-67
2021/08/20 05:50:13;;;;;;;7.40;4.60;;;;;;;20.68;56.32;99346.78;111087;1204;26393;-74
2021/08/20 05:52:41;;;;;;;7.00;4.20;;;;;;;20.61;56.70;99344.03;111232;1212;24293;-74
2021/08/20 05:55:12;;;;;;;4.10;3.70;;;;;;;20.55;56.89;99347.32;115323;1205;137178;-75
2021/08/20 05:57:55;;;;;;;9.50;5.00;;;;;;;20.47;56.81;99346.36;115318;1205;22454;-74
2021/08/20 06:00:23;;;;;;;7.90;4.40;;;;;;;20.38;57.23;99345.93;113909;1205;137678;-85
2021/08/20 06:02:54;;;;;;;8.60;4.60;;;;;;;20.29;56.95;99345.44;113894;1205;22434;-84
2021/08/20 06:05:24;;;;;;;7.00;4.00;;;;;;;20.19;57.30;99341.66;113800;1202;137895;-87
2021/08/20 06:07:52;;;;;;;5.50;3.80;;;;;;;20.11;57.51;99346.02;113890;1206;23234;-85
2021/08/20 06:10:20;;;;;;;7.70;4.10;;;;;;;20.02;57.61;99349.11;113899;1198;22475;-82
2021/08/20 06:12:49;;;;;;;9.30;5.00;;;;;;;19.98;57.72;99349.04;114195;1201;136811;-87
2021/08/20 06:15:18;;;;;;;14.10;5.50;;;;;;;19.94;58.21;99347.21;115097;1207;22417;-86
2021/08/20 06:17:48;;;;;;;5.90;4.20;;;;;;;19.94;58.76;99350.46;114851;1205;136826;-81
2021/08/20 06:20:36;;;;;;;6.50;4.10;;;;;;;19.96;58.65;99352.40;114165;1207;22466;-85
2021/08/20 06:23:08;;;;;;;5.90;3.90;;;;;;;19.97;58.58;99350.94;113803;1201;137278;-82
2021/08/20 06:25:36;;;;;;;6.10;3.80;;;;;;;19.96;58.57;99348.43;113921;1206;22429;-86
2021/08/20 06:28:04;;;;;;;6.90;4.20;;;;;;;19.97;58.85;99347.94;113767;1205;22459;-83
2021/08/20 06:30:33;;;;;;;14.50;4.40;;;;;;;19.98;58.93;99342.44;113892;1202;137124;-86
2021/08/20 06:33:02;;;;;;;6.40;4.20;;;;;;;19.98;58.91;99334.98;113752;1206;22523;-84
2021/08/20 06:35:31;;;;;;;4.60;4.20;;;;;;;20.00;58.93;99336.85;113661;1204;137370;-83
2021/08/20 06:37:59;;;;;;;9.40;4.20;;;;;;;20.03;59.10;99334.29;113879;1206;22445;-84
2021/08/20 06:40:28;;;;;;;6.00;4.40;;;;;;;20.05;59.07;99336.84;114035;1206;23548;-86
2021/08/20 06:42:56;;;;;;;6.00;3.90;;;;;;;20.10;59.20;99341.50;113964;1201;137478;-84
2021/08/20 06:45:24;;;;;;;6.60;3.90;;;;;;;20.14;59.07;99343.66;114064;1208;23230;-85
2021/08/20 06:47:53;;;;;;;8.80;4.00;;;;;;;20.19;59.13;99347.73;113663;1202;137154;-82
2021/08/20 06:50:21;;;;;;;6.90;4.00;;;;;;;20.18;58.82;99341.30;113674;1206;25204;-84
2021/08/20 06:52:49;;;;;;;6.00;3.50;;;;;;;20.23;58.84;99344.68;113750;1205;136533;-81
2021/08/20 06:55:20;;;;;;;5.40;4.20;;;;;;;20.26;59.06;99344.65;113835;1205;23525;-82
2021/08/20 06:57:48;;;;;;;4.70;3.40;;;;;;;20.30;58.99;99340.20;114240;1205;23419;-87
2021/08/20 07:00:16;;;;;;;6.90;4.00;;;;;;;20.36;58.93;99347.51;113993;1201;136658;-88
2021/08/20 07:02:45;;;;;;;6.50;3.80;;;;;;;20.41;58.94;99349.42;114215;1207;24053;-83
2021/08/20 07:05:14;;;;;;;5.90;3.90;;;;;;;20.47;58.51;99350.08;113770;1202;136948;-86
2021/08/20 07:07:42;;;;;;;5.50;4.20;;;;;;;20.51;58.71;99345.02;114098;1204;22465;-87
2021/08/20 07:10:12;;;;;;;13.30;4.50;;;;;;;20.58;58.65;99348.50;114044;1212;22475;-86
2021/08/20 07:12:51;;;;;;;4.50;3.40;;;;;;;20.63;58.45;99350.61;115283;1204;137549;-85
2021/08/20 07:15:20;;;;;;;4.10;3.20;;;;;;;20.67;58.78;99351.96;114906;1205;23570;-85
2021/08/20 07:17:49;;;;;;;5.80;3.50;;;;;;;20.72;58.62;99356.25;114081;1204;137202;-84
2021/08/20 07:20:17;;;;;;;6.60;3.30;;;;;;;20.78;58.14;99356.50;114198;1205;22454;-86
2021/08/20 07:22:45;;;;;;;5.10;3.20;;;;;;;20.81;57.87;99352.99;113888;1200;22470;-85
2021/08/20 07:25:14;;;;;;;7.10;2.70;;;;;;;20.86;57.85;99351.14;115103;1205;136206;-86
2021/08/20 07:27:44;;;;;;;11.00;3.20;;;;;;;20.91;57.95;99353.40;115452;1207;22357;-84
2021/08/20 07:30:13;;;;;;;5.50;3.20;;;;;;;20.94;57.90;99351.39;115364;1204;137495;-85
2021/08/20 07:32:44;;;;;;;6.50;3.10;;;;;;;21.00;57.61;99353.41;113825;1205;22509;-82
2021/08/20 07:35:12;;;;;;;7.70;3.40;;;;;;;21.03;56.89;99357.27;113520;1197;136917;-84
2021/08/20 07:37:41;;;;;;;8.50;3.60;;;;;;;21.05;56.74;99354.98;113914;1204;22468;-87
2021/08/20 07:40:09;;;;;;;5.40;2.90;;;;;;;21.10;56.68;99353.20;114135;1201;23082;-86
2021/08/20 07:42:38;;;;;;;6.00;3.10;;;;;;;21.12;56.48;99350.81;113845;1201;137039;-86
2021/08/20 07:45:07;;;;;;;5.10;2.90;;;;;;;21.16;56.35;99349.02;113995;1207;26351;-85
2021/08/20 07:47:47;;;;;;;4.60;2.70;;;;;;;21.19;56.11;99350.14;113792;1201;136890;-86
2021/08/20 07:50:16;;;;;;;4.90;2.90;;;;;;;21.24;55.97;99346.59;114205;1206;22468;-85
2021/08/20 07:53:03;;;;;;;5.10;2.60;;;;;;;21.29;55.59;99349.90;113921;1201;137152;-85
2021/08/20 07:55:33;;;;;;;3.80;2.60;;;;;;;21.32;55.30;99349.89;114109;1205;22980;-87
2021/08/20 07:58:02;;;;;;;4.80;2.80;;;;;;;21.33;54.87;99348.55;114074;1205;22530;-87
2021/08/20 08:00:30;;;;;;;6.50;2.90;;;;;;;21.32;55.10;99349.95;113935;1203;137637;-84
2021/08/20 08:03:00;;;;;;;3.70;3.00;;;;;;;21.33;54.80;99345.33;115468;1212;22336;-84
2021/08/20 08:05:33;;;;;;;3.40;2.80;;;;;;;21.34;54.71;99347.58;115427;1202;137275;-84
2021/08/20 08:08:01;;;;;;;4.40;2.90;;;;;;;21.35;53.93;99348.80;115569;1205;22319;-84
2021/08/20 08:10:30;;;;;;;3.00;2.50;;;;;;;21.35;54.02;99346.42;115447;1213;22358;-83
2021/08/20 08:12:58;;;;;;;4.90;2.90;;;;;;;21.36;54.00;99343.05;114507;1202;137002;-83
2021/08/20 08:15:26;;;;;;;5.10;2.90;;;;;;;21.38;54.01;99343.04;114624;1205;22418;-87
2021/08/20 08:17:55;;;;;;;4.80;2.70;;;;;;;21.39;53.65;99338.52;114956;1205;135914;-88
2021/08/20 08:20:24;;;;;;;4.70;3.40;;;;;;;21.43;53.18;99339.55;113822;1205;24193;-84
2021/08/20 08:22:52;;;;;;;4.70;3.00;;;;;;;21.45;53.30;99341.08;113768;1201;137130;-83
2021/08/20 08:25:21;;;;;;;4.40;2.90;;;;;;;21.47;53.36;99344.86;113923;1205;22530;-84
2021/08/20 08:27:56;;;;;;;5.80;3.10;;;;;;;21.49;53.52;99341.85;113778;1205;23691;-85
2021/08/20 08:30:27;;;;;;;5.90;3.40;;;;;;;21.51;53.96;99336.30;113552;1202;137033;-85
2021/08/20 08:32:57;;;;;;;4.60;3.10;;;;;;;21.56;53.92;99339.13;115452;1207;23580;-87
2021/08/20 08:35:28;;;;;;;4.60;3.30;;;;;;;21.60;53.78;99331.94;115281;1203;137229;-85
2021/08/20 08:38:10;;;;;;;6.10;3.10;;;;;;;21.67;54.12;99328.36;115524;1207;22359;-85
2021/08/20 08:40:40;;;;;;;7.50;3.80;;;;;;;21.75;54.28;99334.80;115042;1207;23279;-85
2021/08/20 08:43:08;;;;;;;6.10;3.10;;;;;;;21.81;53.91;99332.83;113948;1206;135791;-83
2021/08/20 08:45:36;;;;;;;7.30;3.30;;;;;;;21.86;53.09;99337.70;113999;1205;22473;-84
2021/08/20 08:48:06;;;;;;;5.00;3.10;;;;;;;21.88;53.00;99334.52;113995;1201;137851;-83
2021/08/20 08:50:34;;;;;;;5.10;2.90;;;;;;;21.91;53.14;99338.42;114174;1205;22424;-83
2021/08/20 08:53:03;;;;;;;3.60;2.80;;;;;;;21.94;52.83;99334.91;115439;1201;137552;-84
2021/08/20 08:55:41;;;;;;;3.80;2.40;;;;;;;21.97;52.10;99336.52;115547;1205;22225;-87
2021/08/20 08:58:09;;;;;;;3.80;2.40;;;;;;;21.99;51.81;99330.04;115531;1205;23184;-84
2021/08/20 09:00:38;;;;;;;3.70;2.70;;;;;;;22.03;51.65;99338.45;115420;1201;138035;-88
2021/08/20 09:03:29;;;;;;;4.30;2.50;;;;;;;22.05;51.17;99330.66;115326;1202;22400;-86
2021/08/20 09:05:59;;;;;;;6.10;2.70;;;;;;;22.09;52.07;99327.73;115435;1214;135949;-87
2021/08/20 09:08:27;;;;;;;4.60;2.50;;;;;;;22.15;51.80;99324.50;114004;1207;22465;-85
2021/08/20 09:10:59;;;;;;;3.60;2.40;;;;;;;22.22;51.55;99323.63;113789;1203;137437;-85
2021/08/20 09:13:30;;;;;;;3.90;2.50;;;;;;;22.28;51.52;99330.98;114020;1207;22504;-84
2021/08/20 09:16:08;;;;;;;3.00;2.50;;;;;;;22.35;51.74;99328.95;113733;1208;22503;-87
2021/08/20 09:18:40;;;;;;;5.30;2.50;;;;;;;22.41;51.52;99335.04;113768;1205;137056;-83
2021/08/20 09:21:15;;;;;;;3.30;2.70;;;;;;;22.45;50.83;99334.30;113793;1211;22447;-87
2021/08/20 09:23:45;;;;;;;3.90;2.40;;;;;;;22.46;50.64;99334.75;113478;1204;137331;-84
2021/08/20 09:26:13;;;;;;;6.00;3.10;;;;;;;22.48;51.07;99332.84;113489;1207;22506;-87
2021/08/20 09:28:41;;;;;;;4.10;2.50;;;;;;;22.50;50.43;99337.75;113739;1210;22520;-85
2021/08/20 09:31:13;;;;;;;5.30;2.40;;;;;;;22.49;49.97;99336.06;113754;1205;137183;-84
2021/08/20 09:33:44;;;;;;;3.30;2.30;;;;;;;22.49;50.15;99337.65;113439;1208;22436;-86
2021/08/20 09:36:14;;;;;;;2.80;2.50;;;;;;;22.51;50.03;99344.77;113429;1204;137087;-89
2021/08/20 09:38:49;;;;;;;3.50;2.40;;;;;;;22.53;50.00;99340.80;113766;1208;25205;-86
2021/08/20 09:41:45;;;;;;;5.80;2.30;;;;;;;22.56;49.23;99339.70;113901;1205;136950;-83
2021/08/20 09:44:28;;;;;;;3.50;2.70;;;;;;;22.57;49.47;99339.49;115609;1205;22277;-85
2021/08/20 09:47:03;;;;;;;3.50;2.40;;;;;;;22.59;49.48;99336.48;115336;1201;137216;-86
2021/08/20 09:51:31;;;;;;;3.00;2.50;;;;;;;22.68;49.57;99331.33;109822;1227;548963;-72
2021/08/20 09:54:14;;;;;;;4.30;2.70;;;;;;;22.72;49.84;99330.69;110932;1205;136520;-73
2021/08/20 09:56:58;;;;;;;3.10;2.30;;;;;;;22.80;50.53;99327.73;115221;1211;23304;-72
2021/08/20 09:59:27;;;;;;;4.30;3.00;;;;;;;22.88;50.27;99327.63;115205;1207;136612;-73
2021/08/20 10:01:54;;;;;;;3.30;2.10;;;;;;;22.95;49.49;99331.34;115459;1205;22368;-74
2021/08/20 10:04:21;;;;;;;2.50;2.30;;;;;;;22.98;49.60;99327.47;115384;1205;22332;-66
2021/08/20 10:06:48;;;;;;;3.20;2.50;;;;;;;23.03;49.80;99321.86;115314;1201;136274;-64
2021/08/20 10:09:17;;;;;;;4.30;2.10;;;;;;;23.11;49.02;99318.89;115492;1212;22454;-64
2021/08/20 10:11:47;;;;;;;3.50;2.10;;;;;;;23.17;47.54;99320.28;115354;1201;136624;-65
2021/08/20 10:14:14;;;;;;;3.10;2.10;;;;;;;23.22;46.52;99317.73;115422;1206;23334;-65
2021/08/20 10:16:42;;;;;;;3.90;2.20;;;;;;;23.24;47.05;99324.46;115439;1207;22348;-65
2021/08/20 10:19:09;;;;;;;3.20;2.40;;;;;;;23.27;47.57;99324.87;115303;1205;136468;-64
2021/08/20 10:21:41;;;;;;;4.70;2.60;;;;;;;23.28;47.89;99320.40;115391;1205;22285;-64
2021/08/20 10:24:09;;;;;;;3.20;2.00;;;;;;;23.31;47.87;99320.02;115303;1201;136363;-64
2021/08/20 10:26:41;;;;;;;3.60;2.30;;;;;;;23.33;47.93;99312.85;115418;1198;22190;-64
2021/08/20 10:29:07;;;;;;;4.00;2.40;;;;;;;23.36;48.50;99306.84;115234;1202;136902;-64
2021/08/20 10:31:36;;;;;;;2.90;2.50;;;;;;;23.37;48.20;99302.32;115219;1206;22384;-65
2021/08/20 10:34:31;;;;;;;3.70;2.30;;;;;;;23.39;48.46;99304.54;115336;1207;22362;-64
2021/08/20 10:37:09;;;;;;;3.50;2.30;;;;;;;23.41;48.79;99305.54;115314;1204;137390;-65
2021/08/20 10:39:41;;;;;;;2.90;2.40;;;;;;;23.43;47.95;99305.54;115483;1209;23102;-66
2021/08/20 10:42:22;;;;;;;3.20;2.20;;;;;;;23.47;47.31;99304.64;115313;1202;136760;-65
2021/08/20 10:45:05;;;;;;;3.80;2.10;;;;;;;23.51;47.50;99302.97;115497;1212;22424;-64
2021/08/20 10:47:32;;;;;;;4.00;2.10;;;;;;;23.56;46.79;99304.73;115322;1201;137682;-65
2021/08/20 10:50:11;;;;;;;4.00;2.30;;;;;;;23.57;47.65;99305.55;115431;1212;23305;-64
2021/08/20 10:52:56;;;;;;;3.60;2.20;;;;;;;23.58;47.56;99309.64;115438;1205;22346;-65
2021/08/20 10:55:30;;;;;;;2.60;2.30;;;;;;;23.56;47.00;99310.84;115247;1204;136937;-64
2021/08/20 10:57:58;;;;;;;7.10;2.30;;;;;;;23.54;47.54;99313.30;115346;1205;22356;-64
2021/08/20 11:00:27;;;;;;;3.20;2.20;;;;;;;23.55;47.62;99308.09;115328;1202;137054;-65
2021/08/20 11:03:04;;;;;;;4.00;2.00;;;;;;;23.55;47.38;99300.64;115403;1205;22263;-64
2021/08/20 11:05:35;;;;;;;4.00;2.70;;;;;;;23.55;47.33;99303.27;115279;1202;137079;-65
2021/08/20 11:08:02;;;;;;;3.30;2.10;;;;;;;23.55;47.09;99304.77;115475;1207;22524;-65
2021/08/20 11:10:29;;;;;;;3.20;1.90;;;;;;;23.56;47.35;99301.94;115456;1205;23271;-65
2021/08/20 11:12:57;;;;;;;4.60;1.90;;;;;;;23.54;47.28;99301.05;115336;1206;136712;-65
2021/08/20 11:15:25;;;;;;;2.40;2.10;;;;;;;23.48;46.79;99304.15;115405;1204;22253;-64
2021/08/20 11:17:56;;;;;;;2.90;2.20;;;;;;;23.43;47.20;99299.13;115246;1204;136716;-65
2021/08/20 11:20:43;;;;;;;5.90;2.20;;;;;;;23.38;47.61;99297.52;115429;1206;23109;-65
2021/08/20 11:23:11;;;;;;;3.40;2.20;;;;;;;23.37;47.62;99297.73;115294;1201;137746;-65
2021/08/20 11:25:45;;;;;;;3.70;2.30;;;;;;;23.39;47.47;99298.79;115466;1205;23106;-65
2021/08/20 11:28:22;;;;;;;7.80;2.20;;;;;;;23.40;47.19;99297.10;115360;1205;22431;-66
2021/08/20 11:31:07;;;;;;;2.60;2.10;;;;;;;23.43;47.32;99302.76;115257;1202;137622;-63
2021/08/20 11:33:38;;;;;;;5.40;2.10;;;;;;;23.48;47.49;99297.43;115400;1206;22987;-64
2021/08/20 11:36:23;;;;;;;4.90;2.10;;;;;;;23.54;47.84;99301.64;115304;1202;136647;-65
2021/08/20 11:38:53;;;;;;;2.00;1.60;;;;;;;23.60;47.22;99301.34;115459;1207;22294;-64
2021/08/20 11:41:25;;;;;;;3.10;2.20;;;;;;;23.65;47.18;99300.05;115325;1201;136992;-64
2021/08/20 11:43:56;;;;;;;13.70;2.70;;;;;;;23.69;46.79;99295.34;115436;1205;23123;-66